createdAt,value
2019-03-06T00:01:21.212Z,12.50
2019-03-06T00:03:52.583Z,11.60
2019-03-06T00:06:25.207Z,10.55
2019-03-06T00:08:56.581Z,10.87
2019-03-06T00:11:27.971Z,12.90
2019-03-06T00:13:59.283Z,11.00
2019-03-06T00:16:30.702Z,9.67
2019-03-06T00:19:02.077Z,10.93
2019-03-06T00:21:33.426Z,9.95
2019-03-06T00:24:04.651Z,10.98
2019-03-06T00:26:36.002Z,10.33
2019-03-06T00:29:07.378Z,12.00
2019-03-06T00:31:39.195Z,10.73
2019-03-06T00:34:10.514Z,10.23
2019-03-06T00:36:41.857Z,10.65
2019-03-06T00:39:13.153Z,11.60
2019-03-06T00:41:44.505Z,12.07
2019-03-06T00:44:15.812Z,12.27
2019-03-06T00:46:47.231Z,18.40
2019-03-06T00:49:18.467Z,18.37
2019-03-06T00:51:49.828Z,17.77
2019-03-06T00:54:21.237Z,20.70
2019-03-06T00:56:52.536Z,26.67
2019-03-06T00:59:23.843Z,21.33
2019-03-06T01:01:55.207Z,20.90
2019-03-06T01:04:26.454Z,17.33
2019-03-06T01:06:58.983Z,18.50
2019-03-06T01:09:30.289Z,17.20
2019-03-06T01:12:01.731Z,19.00
2019-03-06T01:14:33.041Z,18.97
2019-03-06T01:17:04.380Z,21.17
2019-03-06T01:19:43.017Z,19.63
2019-03-06T01:22:15.448Z,18.62
2019-03-06T01:24:46.765Z,18.93
2019-03-06T01:27:18.114Z,17.93
2019-03-06T01:29:49.351Z,16.83
2019-03-06T01:32:20.769Z,17.93
2019-03-06T01:35:10.672Z,18.43
2019-03-06T01:37:59.695Z,18.80
2019-03-06T01:40:32.647Z,20.57
2019-03-06T01:43:10.173Z,18.60
2019-03-06T01:45:41.456Z,21.40
2019-03-06T01:48:12.804Z,20.90
2019-03-06T01:50:44.045Z,20.97
2019-03-06T01:53:15.330Z,22.67
2019-03-06T01:55:46.634Z,24.70
2019-03-06T01:58:17.915Z,23.27
2019-03-06T02:00:49.204Z,24.87
2019-03-06T02:03:20.557Z,26.90
2019-03-06T02:05:51.934Z,25.10
2019-03-06T02:08:23.354Z,28.47
2019-03-06T02:10:54.862Z,28.63
2019-03-06T02:13:26.201Z,30.50
2019-03-06T02:15:57.504Z,27.47
2019-03-06T02:18:29.028Z,24.45
2019-03-06T02:21:00.620Z,27.07
2019-03-06T02:23:31.880Z,25.93
2019-03-06T02:26:03.403Z,27.10
2019-03-06T02:28:34.770Z,27.63
2019-03-06T02:31:06.142Z,27.00
2019-03-06T02:33:37.555Z,29.73
2019-03-06T02:36:08.800Z,31.47
2019-03-06T02:38:40.097Z,32.10
2019-03-06T02:41:11.397Z,31.43
2019-03-06T02:43:42.679Z,29.57
2019-03-06T02:46:13.915Z,28.60
2019-03-06T02:48:45.312Z,31.27
2019-03-06T02:51:16.619Z,33.53
2019-03-06T02:53:47.928Z,31.63
2019-03-06T02:56:19.286Z,31.40
2019-03-06T02:58:55.107Z,28.60
2019-03-06T03:01:27.981Z,31.00
2019-03-06T03:04:02.754Z,30.30
2019-03-06T03:06:35.766Z,28.90
2019-03-06T03:09:16.554Z,31.20
2019-03-06T03:11:47.923Z,29.53
2019-03-06T03:14:19.277Z,32.03
2019-03-06T03:16:50.566Z,31.83
2019-03-06T03:19:21.871Z,33.03
2019-03-06T03:21:54.184Z,32.37
2019-03-06T03:24:25.545Z,37.03
2019-03-06T03:26:56.795Z,37.37
2019-03-06T03:29:28.348Z,34.07
2019-03-06T03:31:59.581Z,33.17
2019-03-06T03:34:30.976Z,35.30
2019-03-06T03:37:03.249Z,36.93
2019-03-06T03:39:34.626Z,35.50
2019-03-06T03:42:05.995Z,34.73
2019-03-06T03:44:37.554Z,35.97
2019-03-06T03:47:16.600Z,29.70
2019-03-06T03:49:47.872Z,26.63
2019-03-06T03:52:19.417Z,27.53
2019-03-06T03:54:51.666Z,29.00
2019-03-06T03:57:23.192Z,28.90
2019-03-06T03:59:55.810Z,29.50
2019-03-06T04:02:27.533Z,34.53
2019-03-06T04:04:58.966Z,28.73
2019-03-06T04:07:30.402Z,30.63
2019-03-06T04:10:01.811Z,32.63
2019-03-06T04:12:34.240Z,29.27
2019-03-06T04:15:18.572Z,27.07
2019-03-06T04:17:50.778Z,26.70
2019-03-06T04:20:23.116Z,24.43
2019-03-06T04:22:54.344Z,25.67
2019-03-06T04:25:26.242Z,24.67
2019-03-06T04:27:57.645Z,24.60
2019-03-06T04:30:29.991Z,21.23
2019-03-06T04:33:01.293Z,20.87
2019-03-06T04:35:32.581Z,20.27
2019-03-06T04:38:04.187Z,21.90
2019-03-06T04:40:35.732Z,19.23
2019-03-06T04:43:07.083Z,20.10
2019-03-06T04:45:38.533Z,18.03
2019-03-06T04:48:09.830Z,16.63
2019-03-06T04:50:41.397Z,15.00
2019-03-06T04:53:12.810Z,14.37
2019-03-06T04:55:45.282Z,15.83
2019-03-06T04:58:16.564Z,13.90
2019-03-06T05:00:47.955Z,15.00
2019-03-06T05:03:19.301Z,14.90
2019-03-06T05:05:52.187Z,19.40
2019-03-06T05:08:23.450Z,18.83
2019-03-06T05:10:54.857Z,17.53
2019-03-06T05:13:26.134Z,17.93
2019-03-06T05:15:57.496Z,19.67
2019-03-06T05:18:36.372Z,19.27
2019-03-06T05:21:08.778Z,19.57
2019-03-06T05:23:40.050Z,20.13
2019-03-06T05:26:11.374Z,15.83
2019-03-06T05:28:42.800Z,18.03
2019-03-06T05:31:15.283Z,18.90
2019-03-06T05:33:46.540Z,20.23
2019-03-06T05:36:40.937Z,19.40
2019-03-06T05:39:12.892Z,17.60
2019-03-06T05:41:44.837Z,17.70
2019-03-06T05:44:16.240Z,17.93
2019-03-06T05:46:49.225Z,18.63
2019-03-06T05:49:20.526Z,18.77
2019-03-06T05:51:51.843Z,17.40
2019-03-06T05:54:23.101Z,17.93
2019-03-06T05:56:54.431Z,16.80
2019-03-06T05:59:25.777Z,19.80
2019-03-06T06:01:57.198Z,19.33
2019-03-06T06:04:34.452Z,14.83
2019-03-06T06:07:05.866Z,16.70
2019-03-06T06:09:37.312Z,17.10
2019-03-06T06:12:08.653Z,17.40
2019-03-06T06:14:40.107Z,17.13
2019-03-06T06:17:11.509Z,20.10
2019-03-06T06:19:43.084Z,18.57
2019-03-06T06:22:31.097Z,18.40
2019-03-06T06:25:02.515Z,16.60
2019-03-06T06:27:34.241Z,16.17
2019-03-06T06:30:11.211Z,15.70
2019-03-06T06:32:42.682Z,17.33
2019-03-06T06:35:15.172Z,17.93
2019-03-06T06:37:46.562Z,18.63
2019-03-06T06:40:17.872Z,17.87
2019-03-06T06:42:49.250Z,20.17
2019-03-06T06:45:21.934Z,22.20
2019-03-06T06:48:15.817Z,18.60
2019-03-06T06:51:18.211Z,19.93
2019-03-06T06:53:54.281Z,20.07
2019-03-06T06:57:02.582Z,15.93
2019-03-06T06:59:41.442Z,17.37
2019-03-06T07:02:52.031Z,18.53
2019-03-06T07:05:25.093Z,17.27
2019-03-06T07:08:14.369Z,15.03
2019-03-06T07:10:50.117Z,15.60
2019-03-06T07:13:38.263Z,19.53
2019-03-06T07:16:20.017Z,15.40
2019-03-06T07:19:09.099Z,19.63
2019-03-06T07:22:32.678Z,19.53
2019-03-06T07:24:38.617Z,17.13
2019-03-06T07:27:15.064Z,21.73
2019-03-06T07:29:57.881Z,17.83
2019-03-06T07:32:47.241Z,16.83
2019-03-06T07:35:53.359Z,20.80
2019-03-06T07:38:24.962Z,16.73
2019-03-06T07:41:00.445Z,12.20
2019-03-06T07:43:53.263Z,13.63
2019-03-06T07:46:43.494Z,14.00
2019-03-06T07:49:22.497Z,12.00
2019-03-06T07:52:15.108Z,12.00
2019-03-06T07:54:48.035Z,10.90
2019-03-06T07:57:19.179Z,12.40
2019-03-06T07:59:50.514Z,12.80
2019-03-06T08:02:54.029Z,14.07
2019-03-06T08:05:28.223Z,10.57
2019-03-06T08:07:59.696Z,10.07
2019-03-06T08:10:32.832Z,10.43
2019-03-06T08:13:08.627Z,10.13
2019-03-06T08:15:41.772Z,10.57
2019-03-06T08:18:17.796Z,11.97
2019-03-06T08:20:50.938Z,8.67
2019-03-06T08:23:30.131Z,8.53
2019-03-06T08:26:01.455Z,8.07
2019-03-06T08:28:33.073Z,8.25
2019-03-06T08:31:12.633Z,8.67
2019-03-06T08:33:44.071Z,6.67
2019-03-06T08:36:15.470Z,10.33
2019-03-06T08:38:46.720Z,8.83
2019-03-06T08:41:19.639Z,8.43
2019-03-06T08:43:51.023Z,6.42
2019-03-06T08:46:30.003Z,6.73
2019-03-06T08:49:12.043Z,6.10
2019-03-06T08:51:53.165Z,5.85
2019-03-06T08:54:36.861Z,6.95
2019-03-06T08:57:17.461Z,7.17
2019-03-06T08:59:59.109Z,6.15
2019-03-06T09:02:37.961Z,6.83
2019-03-06T09:05:17.587Z,10.03
2019-03-06T09:07:56.641Z,6.37
2019-03-06T09:10:32.796Z,6.60
2019-03-06T09:13:11.327Z,6.35
2019-03-06T09:15:44.306Z,6.37
2019-03-06T09:18:29.271Z,5.13
2019-03-06T09:21:02.238Z,7.65
2019-03-06T09:23:39.019Z,5.40
2019-03-06T09:26:14.896Z,3.85
2019-03-06T09:28:48.067Z,5.45
2019-03-06T09:31:22.064Z,4.90
2019-03-06T09:33:56.350Z,5.12
2019-03-06T09:36:35.091Z,7.25
2019-03-06T09:39:08.024Z,4.55
2019-03-06T09:41:41.133Z,6.12
2019-03-06T09:44:23.156Z,4.45
2019-03-06T09:46:59.250Z,4.78
2019-03-06T09:49:47.769Z,7.03
2019-03-06T09:52:20.994Z,3.37
2019-03-06T09:54:55.099Z,3.42
2019-03-06T09:57:30.889Z,7.25
2019-03-06T10:00:03.913Z,6.12
2019-03-06T10:02:44.322Z,3.75
2019-03-06T10:05:17.540Z,4.40
2019-03-06T10:07:50.750Z,3.67
2019-03-06T10:10:29.620Z,4.10
2019-03-06T10:13:20.739Z,4.12
2019-03-06T10:15:56.458Z,5.28
2019-03-06T10:18:41.478Z,3.47
2019-03-06T10:21:13.120Z,3.90
2019-03-06T10:23:45.479Z,4.35
2019-03-06T10:26:17.271Z,7.05
2019-03-06T10:28:48.773Z,4.28
2019-03-06T10:31:21.003Z,4.65
2019-03-06T10:33:52.348Z,4.25
2019-03-06T10:36:23.719Z,4.28
2019-03-06T10:38:55.132Z,4.75
2019-03-06T10:41:28.218Z,3.58
2019-03-06T10:44:02.797Z,3.83
2019-03-06T10:46:34.466Z,3.30
2019-03-06T10:49:06.438Z,5.67
2019-03-06T10:51:37.924Z,3.72
2019-03-06T10:54:09.494Z,4.25
2019-03-06T10:56:41.200Z,3.87
2019-03-06T10:59:12.592Z,3.70
2019-03-06T11:01:45.188Z,3.15
2019-03-06T11:04:18.326Z,3.40
2019-03-06T11:06:58.832Z,2.87
2019-03-06T11:09:30.647Z,3.62
2019-03-06T11:12:02.505Z,4.22
2019-03-06T11:14:35.703Z,4.05
2019-03-06T11:17:07.504Z,4.08
2019-03-06T11:19:39.084Z,5.75
2019-03-06T11:22:10.677Z,2.50
2019-03-06T11:24:42.537Z,4.72
2019-03-06T11:27:13.968Z,3.65
2019-03-06T11:29:45.584Z,3.87
2019-03-06T11:32:17.531Z,4.95
2019-03-06T11:34:49.334Z,4.12
2019-03-06T11:37:20.884Z,4.58
2019-03-06T11:39:52.328Z,3.33
2019-03-06T11:42:23.739Z,6.35
2019-03-06T11:44:56.724Z,4.87
2019-03-06T11:47:29.166Z,3.60
2019-03-06T11:50:00.723Z,6.42
2019-03-06T11:52:34.788Z,5.87
2019-03-06T11:55:12.941Z,4.03
2019-03-06T11:57:45.598Z,4.10
2019-03-06T12:00:37.869Z,5.17
2019-03-06T12:03:09.493Z,3.90
2019-03-06T12:05:41.382Z,3.37
2019-03-06T12:08:17.116Z,3.25
2019-03-06T12:10:49.066Z,4.03
2019-03-06T12:13:20.591Z,4.47
2019-03-06T12:15:52.857Z,3.25
2019-03-06T12:18:25.479Z,3.85
2019-03-06T12:20:57.051Z,2.87
2019-03-06T12:23:28.748Z,5.97
2019-03-06T12:26:01.718Z,6.00
2019-03-06T12:28:33.198Z,2.58
2019-03-06T12:31:08.290Z,3.58
2019-03-06T12:33:39.818Z,4.25
2019-03-06T12:36:12.263Z,6.35
2019-03-06T12:38:43.669Z,4.22
2019-03-06T12:41:16.524Z,3.00
2019-03-06T12:43:47.872Z,5.10
2019-03-06T12:46:23.776Z,4.05
2019-03-06T12:48:59.642Z,4.15
2019-03-06T12:51:31.508Z,4.47
2019-03-06T12:54:03.008Z,3.05
2019-03-06T12:56:34.456Z,4.45
2019-03-06T12:59:06.814Z,3.80
2019-03-06T13:01:39.192Z,6.50
2019-03-06T13:04:10.802Z,4.45
2019-03-06T13:06:44.291Z,4.87
2019-03-06T13:09:20.162Z,4.47
2019-03-06T13:11:51.717Z,5.75
2019-03-06T13:14:23.109Z,2.45
2019-03-06T13:16:54.528Z,5.15
2019-03-06T13:19:27.389Z,4.70
2019-03-06T13:21:58.846Z,4.30
2019-03-06T13:24:31.864Z,5.75
2019-03-06T13:27:05.326Z,3.47
2019-03-06T13:29:36.900Z,3.98
2019-03-06T13:32:11.771Z,6.80
2019-03-06T13:34:50.135Z,4.12
2019-03-06T13:37:14.334Z,5.10
2019-03-06T13:39:47.331Z,5.47
2019-03-06T13:42:18.850Z,5.55
2019-03-06T13:44:50.176Z,3.55
2019-03-06T13:47:21.547Z,3.52
2019-03-06T13:49:52.967Z,3.25
2019-03-06T13:52:24.480Z,4.45
2019-03-06T13:54:55.881Z,5.50
2019-03-06T13:57:27.407Z,3.10
2019-03-06T13:59:58.821Z,5.20
2019-03-06T14:02:30.140Z,5.42
2019-03-06T14:05:02.752Z,3.02
2019-03-06T14:07:35.715Z,4.12
2019-03-06T14:10:12.296Z,6.90
2019-03-06T14:12:47.558Z,3.52
2019-03-06T14:15:20.311Z,5.05
2019-03-06T14:17:54.985Z,4.20
2019-03-06T14:20:26.328Z,4.15
2019-03-06T14:22:57.817Z,3.87
2019-03-06T14:25:29.621Z,4.05
2019-03-06T14:28:01.052Z,8.13
2019-03-06T14:30:38.785Z,4.97
2019-03-06T14:33:10.279Z,4.03
2019-03-06T14:35:41.586Z,3.85
2019-03-06T14:38:13.099Z,3.95
2019-03-06T14:40:45.521Z,4.45
2019-03-06T14:43:17.074Z,3.95
2019-03-06T14:46:00.027Z,4.78
2019-03-06T14:48:31.511Z,3.67
2019-03-06T14:51:03.810Z,3.37
2019-03-06T14:53:35.257Z,3.20
2019-03-06T14:56:09.441Z,5.25
2019-03-06T14:58:40.735Z,5.60
2019-03-06T15:01:12.131Z,4.40
2019-03-06T15:03:43.579Z,3.08
2019-03-06T15:06:15.015Z,3.98
2019-03-06T15:08:46.387Z,4.33
2019-03-06T15:11:18.292Z,4.47
2019-03-06T15:13:51.608Z,3.62
2019-03-06T15:16:22.915Z,2.62
2019-03-06T15:18:54.319Z,4.53
2019-03-06T15:21:25.656Z,3.45
2019-03-06T15:23:57.294Z,3.80
2019-03-06T15:26:28.669Z,2.90
2019-03-06T15:29:00.031Z,3.10
2019-03-06T15:31:31.340Z,3.25
2019-03-06T15:34:13.079Z,3.92
2019-03-06T15:36:44.319Z,2.75
2019-03-06T15:39:31.055Z,2.87
2019-03-06T15:42:03.459Z,3.80
2019-03-06T15:44:35.223Z,5.42
2019-03-06T15:47:06.783Z,3.20
2019-03-06T15:49:38.292Z,3.83
2019-03-06T15:52:14.431Z,3.37
2019-03-06T15:54:45.661Z,3.75
2019-03-06T15:57:17.016Z,3.77
2019-03-06T15:59:48.344Z,2.83
2019-03-06T16:02:24.423Z,3.67
2019-03-06T16:04:55.872Z,3.98
2019-03-06T16:07:28.401Z,3.62
2019-03-06T16:10:00.060Z,3.52
2019-03-06T16:12:31.560Z,3.10
2019-03-06T16:15:05.366Z,3.70
2019-03-06T16:17:43.290Z,4.17
2019-03-06T16:20:18.928Z,3.55
2019-03-06T16:22:50.941Z,3.35
2019-03-06T16:25:25.142Z,4.28
2019-03-06T16:27:57.120Z,4.87
2019-03-06T16:30:30.604Z,3.70
2019-03-06T16:33:02.113Z,2.87
2019-03-06T16:35:34.558Z,5.62
2019-03-06T16:38:06.152Z,2.98
2019-03-06T16:40:37.530Z,4.50
2019-03-06T16:43:09.921Z,4.60
2019-03-06T16:45:41.341Z,3.12
2019-03-06T16:48:12.799Z,2.92
2019-03-06T16:50:44.147Z,3.17
2019-03-06T16:53:16.101Z,3.00
2019-03-06T16:55:52.264Z,4.05
2019-03-06T16:58:23.577Z,3.58
2019-03-06T17:00:56.492Z,3.30
2019-03-06T17:03:27.806Z,4.42
2019-03-06T17:06:05.029Z,3.55
2019-03-06T17:08:36.550Z,2.50
2019-03-06T17:11:10.732Z,2.75
2019-03-06T17:13:42.387Z,2.85
2019-03-06T17:16:13.877Z,2.70
2019-03-06T17:18:46.844Z,4.03
2019-03-06T17:21:18.175Z,3.05
2019-03-06T17:23:50.663Z,5.22
2019-03-06T17:26:30.743Z,3.80
2019-03-06T17:29:11.803Z,5.17
2019-03-06T17:31:44.453Z,7.83
2019-03-06T17:34:16.141Z,4.72
2019-03-06T17:36:47.494Z,4.92
2019-03-06T17:39:20.733Z,9.93
2019-03-06T17:41:51.967Z,9.03
2019-03-06T17:44:23.390Z,8.63
2019-03-06T17:46:55.086Z,5.67
2019-03-06T17:49:26.494Z,6.05
2019-03-06T17:51:57.944Z,5.92
2019-03-06T17:54:33.575Z,6.30
2019-03-06T17:57:05.317Z,5.55
2019-03-06T17:59:36.910Z,6.08
2019-03-06T18:02:10.029Z,5.35
2019-03-06T18:04:41.460Z,4.72
2019-03-06T18:07:12.853Z,9.83
2019-03-06T18:09:48.132Z,8.30
2019-03-06T18:12:19.675Z,4.00
2019-03-06T18:14:52.708Z,4.87
2019-03-06T18:17:24.427Z,8.63
2019-03-06T18:19:56.167Z,5.65
2019-03-06T18:22:28.237Z,4.40
2019-03-06T18:25:00.394Z,4.62
2019-03-06T18:27:31.993Z,4.05
2019-03-06T18:30:05.102Z,3.62
2019-03-06T18:32:40.566Z,6.33
2019-03-06T18:35:21.738Z,9.20
2019-03-06T18:37:57.351Z,4.33
2019-03-06T18:40:29.648Z,6.72
2019-03-06T18:43:01.826Z,4.37
2019-03-06T18:45:33.440Z,5.00
2019-03-06T18:48:05.560Z,3.42
2019-03-06T18:50:41.532Z,4.30
2019-03-06T18:53:13.070Z,7.72
2019-03-06T18:55:44.779Z,6.25
2019-03-06T18:58:17.339Z,7.90
2019-03-06T19:00:50.451Z,7.08
2019-03-06T19:03:21.863Z,5.08
2019-03-06T19:05:53.275Z,7.95
2019-03-06T19:08:31.099Z,5.87
2019-03-06T19:10:58.149Z,5.10
2019-03-06T19:13:29.671Z,7.78
2019-03-06T19:16:01.224Z,5.80
2019-03-06T19:18:32.793Z,5.70
2019-03-06T19:21:04.203Z,8.73
2019-03-06T19:23:41.507Z,7.78
2019-03-06T19:26:12.946Z,14.00
2019-03-06T19:28:46.042Z,15.45
2019-03-06T19:31:17.792Z,9.83
2019-03-06T19:33:49.381Z,10.50
2019-03-06T19:36:20.847Z,11.95
2019-03-06T19:38:55.344Z,13.18
2019-03-06T19:41:26.702Z,12.73
2019-03-06T19:43:58.222Z,10.05
2019-03-06T19:46:29.826Z,10.18
2019-03-06T19:49:01.116Z,11.10
2019-03-06T19:51:32.448Z,10.05
2019-03-06T19:54:05.016Z,12.13
2019-03-06T19:56:36.594Z,11.40
2019-03-06T19:59:08.997Z,10.20
2019-03-06T20:01:52.436Z,11.50
2019-03-06T20:04:24.035Z,11.60
2019-03-06T20:06:55.505Z,10.65
2019-03-06T20:09:28.255Z,12.73
2019-03-06T20:11:59.739Z,11.90
2019-03-06T20:14:31.471Z,13.98
2019-03-06T20:17:03.107Z,14.98
2019-03-06T20:19:34.861Z,13.98
2019-03-06T20:22:06.364Z,15.93
2019-03-06T20:24:38.051Z,15.38
2019-03-06T20:27:09.755Z,13.60
2019-03-06T20:29:41.211Z,13.28
2019-03-06T20:32:12.884Z,11.45
2019-03-06T20:34:44.286Z,9.95
2019-03-06T20:37:15.652Z,8.20
2019-03-06T20:39:47.539Z,5.65
2019-03-06T20:42:18.981Z,7.40
2019-03-06T20:44:51.955Z,6.78
2019-03-06T20:47:30.152Z,6.60
2019-03-06T20:50:01.487Z,6.22
2019-03-06T20:52:33.074Z,7.80
2019-03-06T20:55:06.197Z,6.30
2019-03-06T20:57:37.803Z,6.72
2019-03-06T21:00:16.025Z,6.60
2019-03-06T21:02:47.771Z,7.45
2019-03-06T21:05:19.423Z,6.72
2019-03-06T21:07:50.852Z,6.70
2019-03-06T21:10:23.361Z,7.75
2019-03-06T21:12:55.022Z,8.18
2019-03-06T21:15:26.492Z,8.13
2019-03-06T21:17:57.896Z,8.40
2019-03-06T21:20:29.236Z,9.23
2019-03-06T21:23:00.788Z,10.05
2019-03-06T21:25:32.366Z,8.43
2019-03-06T21:28:03.681Z,9.08
2019-03-06T21:30:36.597Z,9.08
2019-03-06T21:33:08.332Z,10.93
2019-03-06T21:35:39.765Z,11.83
2019-03-06T21:38:11.187Z,11.55
2019-03-06T21:40:42.580Z,10.03
2019-03-06T21:43:14.123Z,7.70
2019-03-06T21:45:45.443Z,6.67
2019-03-06T21:48:16.760Z,7.40
2019-03-06T21:50:48.173Z,5.65
2019-03-06T21:53:19.542Z,5.90
2019-03-06T21:55:52.059Z,5.25
2019-03-06T21:58:23.571Z,6.75
2019-03-06T22:00:54.974Z,6.33
2019-03-06T22:03:30.090Z,7.58
2019-03-06T22:06:01.364Z,6.75
2019-03-06T22:08:32.977Z,6.45
2019-03-06T22:11:04.283Z,7.15
2019-03-06T22:13:35.594Z,6.15
2019-03-06T22:16:06.929Z,5.65
2019-03-06T22:18:39.821Z,7.25
2019-03-06T22:21:11.137Z,6.12
2019-03-06T22:23:42.504Z,6.47
2019-03-06T22:26:13.762Z,4.83
2019-03-06T22:28:45.418Z,5.35
2019-03-06T22:31:16.670Z,5.60
2019-03-06T22:33:48.258Z,6.75
2019-03-06T22:36:19.582Z,6.15
2019-03-06T22:38:51.476Z,5.58
2019-03-06T22:41:23.690Z,7.25
2019-03-06T22:43:55.196Z,6.20
2019-03-06T22:46:26.503Z,5.67
2019-03-06T22:48:57.997Z,5.80
2019-03-06T22:51:29.315Z,6.03
2019-03-06T22:54:00.893Z,5.95
2019-03-06T22:56:32.348Z,7.08
2019-03-06T22:59:03.755Z,5.80
2019-03-06T23:01:36.576Z,6.00
2019-03-06T23:04:08.345Z,5.75
2019-03-06T23:06:39.727Z,6.10
2019-03-06T23:09:11.637Z,6.85
2019-03-06T23:11:43.714Z,6.03
2019-03-06T23:14:15.150Z,5.45
2019-03-06T23:16:46.411Z,6.92
2019-03-06T23:19:17.764Z,6.58
2019-03-06T23:21:49.008Z,7.15
2019-03-06T23:24:20.359Z,6.30
2019-03-06T23:26:51.690Z,5.05
2019-03-06T23:29:23.223Z,5.47
2019-03-06T23:31:54.457Z,4.95
2019-03-06T23:34:26.013Z,6.05
2019-03-06T23:36:57.288Z,5.42
2019-03-06T23:39:28.817Z,6.78
2019-03-06T23:42:00.357Z,6.42
2019-03-06T23:44:31.729Z,6.90
2019-03-06T23:47:03.009Z,9.20
2019-03-06T23:49:36.885Z,7.40
2019-03-06T23:52:09.180Z,6.97
2019-03-06T23:54:40.731Z,6.40
2019-03-06T23:57:12.036Z,8.30
2019-03-06T23:59:43.428Z,7.10
